Time;durP1;ratioP1;P1;durP2;ratioP2;P2;SDS_P1;SDS_P2;PMS_P1;PMS_P2;Temp;Humidity;BMP_temperature;BMP_pressure;BME280_temperature;BME280_humidity;BME280_pressure;Samples;Min_cycle;Max_cycle;Signal;HPM_P1;HPM_P2
2023/01/05 00:02:21;;;;;;;73.23;8.67;;;11.30;99.90;;;;;;5010556;28;20246;-58
2023/01/05 00:04:47;;;;;;;75.20;9.40;;;11.20;99.90;;;;;;5011180;28;20222;-58
2023/01/05 00:07:13;;;;;;;66.17;7.70;;;11.20;99.90;;;;;;5010025;28;20167;-58
2023/01/05 00:09:38;;;;;;;65.87;8.97;;;11.20;99.90;;;;;;5011281;28;20304;-58
2023/01/05 00:23:19;;;;;;;71.10;8.93;;;11.20;99.90;;;;;;5028872;28;20189;-58
2023/01/05 00:25:45;;;;;;;73.53;9.23;;;11.30;99.90;;;;;;5011456;28;20182;-58
2023/01/05 00:28:10;;;;;;;62.23;7.47;;;11.30;99.90;;;;;;5019563;28;20662;-58
2023/01/05 00:30:41;;;;;;;73.50;9.43;;;11.30;99.90;;;;;;5030667;28;20216;-57
2023/01/05 00:33:08;;;;;;;53.20;7.60;;;11.30;99.90;;;;;;5030566;28;20174;-58
2023/01/05 00:35:34;;;;;;;59.53;7.40;;;11.30;99.90;;;;;;5030385;28;20276;-58
2023/01/05 00:37:59;;;;;;;73.63;8.70;;;11.40;99.90;;;;;;5030447;28;20298;-58
2023/01/05 00:40:26;;;;;;;63.43;8.37;;;11.40;99.90;;;;;;5030009;28;20755;-58
2023/01/05 00:42:52;;;;;;;66.13;9.17;;;11.30;99.90;;;;;;5006156;28;20199;-58
2023/01/05 00:45:18;;;;;;;68.33;7.53;;;11.40;99.90;;;;;;5030475;28;20181;-58
2023/01/05 00:47:44;;;;;;;59.87;7.57;;;11.40;99.90;;;;;;5030493;28;20283;-58
2023/01/05 00:50:13;;;;;;;49.97;7.30;;;11.40;99.90;;;;;;5029469;28;20686;-58
2023/01/05 00:52:39;;;;;;;54.03;7.40;;;11.40;99.90;;;;;;5030315;28;20185;-58
2023/01/05 00:55:05;;;;;;;71.50;8.80;;;11.40;99.90;;;;;;5030472;28;20574;-57
2023/01/05 00:57:30;;;;;;;61.17;8.07;;;11.40;99.90;;;;;;5029929;28;20658;-58
2023/01/05 00:59:56;;;;;;;75.43;9.60;;;11.40;99.90;;;;;;5029952;28;20178;-58
2023/01/05 01:02:22;;;;;;;62.43;8.80;;;;;;;;;;5029735;28;20228;-58
2023/01/05 01:04:48;;;;;;;71.40;8.47;;;;;;;;;;5030336;28;20228;-57
2023/01/05 01:07:14;;;;;;;71.30;8.73;;;11.40;99.90;;;;;;5030358;28;20245;-57
2023/01/05 01:09:40;;;;;;;63.70;8.23;;;11.40;99.90;;;;;;5030337;28;20327;-58
2023/01/05 01:12:06;;;;;;;58.83;8.23;;;11.20;99.90;;;;;;5030343;28;20228;-58
2023/01/05 01:14:31;;;;;;;70.37;7.87;;;11.40;99.90;;;;;;5032237;28;20636;-57
2023/01/05 01:16:57;;;;;;;65.43;8.50;;;11.40;99.90;;;;;;5032581;28;20221;-58
2023/01/05 01:19:24;;;;;;;74.90;8.83;;;11.50;99.90;;;;;;5034118;28;20174;-58
2023/01/05 01:21:50;;;;;;;63.03;7.53;;;11.30;99.90;;;;;;5032667;28;20190;-57
2023/01/05 01:24:22;;;;;;;74.40;9.80;;;11.30;99.90;;;;;;5033800;28;20177;-58
2023/01/05 01:26:48;;;;;;;71.03;8.10;;;11.20;99.90;;;;;;5033746;28;20178;-57
2023/01/05 01:29:16;;;;;;;78.43;8.63;;;11.30;99.90;;;;;;5033644;28;20253;-57
2023/01/05 01:31:42;;;;;;;47.30;6.97;;;11.40;99.90;;;;;;5033708;28;20206;-57
2023/01/05 01:34:07;;;;;;;73.17;9.40;;;11.40;99.90;;;;;;5033551;28;20225;-58
2023/01/05 01:36:33;;;;;;;74.57;8.90;;;11.40;99.90;;;;;;5012900;28;20899;-57
2023/01/05 01:38:59;;;;;;;71.37;7.70;;;11.40;99.90;;;;;;5022174;28;20225;-57
2023/01/05 01:41:25;;;;;;;70.97;8.70;;;11.40;99.90;;;;;;5033394;28;20188;-58
2023/01/05 01:43:55;;;;;;;60.20;7.70;;;11.30;99.90;;;;;;5032091;28;20181;-58
2023/01/05 01:46:22;;;;;;;65.03;8.97;;;11.30;99.90;;;;;;5033478;28;20181;-58
2023/01/05 01:49:03;;;;;;;80.30;8.33;;;11.30;99.90;;;;;;5032838;28;20315;-57
2023/01/05 01:51:33;;;;;;;58.20;6.83;;;11.30;99.90;;;;;;5033098;28;20188;-58
2023/01/05 01:54:03;;;;;;;83.03;10.60;;;11.30;99.90;;;;;;5033040;28;20170;-57
2023/01/05 01:56:35;;;;;;;69.10;8.93;;;11.30;99.90;;;;;;5032571;28;20557;-57
2023/01/05 01:59:01;;;;;;;55.23;8.17;;;11.40;99.90;;;;;;5032835;28;20640;-58
2023/01/05 02:01:27;;;;;;;73.47;7.77;;;11.40;99.90;;;;;;5032606;28;20181;-58
2023/01/05 02:03:54;;;;;;;74.93;8.90;;;11.40;99.90;;;;;;5032569;28;20209;-57
2023/01/05 02:06:19;;;;;;;68.37;8.67;;;11.40;99.90;;;;;;5033033;28;20185;-57
2023/01/05 02:08:46;;;;;;;87.00;9.37;;;11.40;99.90;;;;;;5032963;28;20166;-58
2023/01/05 02:11:20;;;;;;;68.33;8.10;;;11.40;99.90;;;;;;5032908;28;20190;-57
2023/01/05 02:14:04;;;;;;;70.00;8.30;;;11.20;99.90;;;;;;5032910;28;20170;-57
2023/01/05 02:16:45;;;;;;;66.70;8.63;;;11.30;99.90;;;;;;5032971;28;20220;-57
2023/01/05 02:19:11;;;;;;;65.20;8.00;;;11.30;99.90;;;;;;5032750;28;20180;-58
2023/01/05 02:22:00;;;;;;;53.03;6.33;;;11.30;99.90;;;;;;5032865;28;20177;-56
2023/01/05 02:24:59;;;;;;;71.97;8.63;;;11.20;99.90;;;;;;5032603;28;20181;-58
2023/01/05 02:27:52;;;;;;;72.63;8.50;;;11.30;99.90;;;;;;5032297;28;20675;-58
2023/01/05 02:30:58;;;;;;;70.00;8.80;;;11.30;99.90;;;;;;5032556;28;20201;-58
2023/01/05 02:34:01;;;;;;;66.93;8.67;;;11.10;99.90;;;;;;5024841;28;20193;-58
2023/01/05 02:36:42;;;;;;;73.00;8.23;;;11.40;99.90;;;;;;5032514;28;20181;-58
2023/01/05 02:39:36;;;;;;;63.13;8.17;;;11.40;99.90;;;;;;5031022;28;20182;-58
2023/01/05 02:42:17;;;;;;;72.87;8.47;;;11.40;99.90;;;;;;5022847;28;20198;-58
2023/01/05 02:44:43;;;;;;;82.33;8.17;;;11.40;99.90;;;;;;5031967;28;20173;-58
2023/01/05 02:47:24;;;;;;;62.83;7.40;;;11.40;99.90;;;;;;5032047;28;20185;-58
2023/01/05 02:49:53;;;;;;;67.87;9.17;;;11.40;99.90;;;;;;5014957;28;20301;-58
2023/01/05 02:52:20;;;;;;;69.90;8.43;;;11.40;99.90;;;;;;5030641;28;20178;-56
2023/01/05 02:54:52;;;;;;;71.20;8.03;;;11.40;99.90;;;;;;5015184;28;20270;-56
2023/01/05 02:57:45;;;;;;;61.83;8.07;;;11.40;99.90;;;;;;5021573;28;20177;-56
2023/01/05 03:00:15;;;;;;;54.87;7.17;;;11.40;99.90;;;;;;5031214;28;20189;-56
2023/01/05 03:02:43;;;;;;;75.50;8.03;;;11.40;99.90;;;;;;5031339;28;20200;-57
2023/01/05 03:05:15;;;;;;;74.40;8.80;;;11.40;99.90;;;;;;5031418;28;20579;-57
2023/01/05 03:07:42;;;;;;;62.70;7.03;;;11.40;99.90;;;;;;5031458;28;20223;-58
2023/01/05 03:15:44;;;;;;;71.10;7.50;;;11.50;99.90;;;;;;5029417;28;21876;-57
2023/01/05 03:18:13;;;;;;;63.40;8.17;;;11.50;99.90;;;;;;5031582;28;20222;-56
2023/01/05 03:20:45;;;;;;;52.07;7.27;;;11.50;99.90;;;;;;5023588;28;20233;-57
2023/01/05 03:37:36;;;;;;;66.63;9.07;;;11.60;99.90;;;;;;5031315;28;20243;-56
2023/01/05 03:40:04;;;;;;;54.67;7.83;;;11.60;99.90;;;;;;5031410;28;20182;-56
2023/01/05 03:42:31;;;;;;;71.87;7.77;;;11.60;99.90;;;;;;5031210;28;20652;-56
2023/01/05 03:44:57;;;;;;;63.03;7.37;;;11.60;99.90;;;;;;5031239;28;20174;-56
2023/01/05 03:47:23;;;;;;;66.50;6.97;;;11.60;99.90;;;;;;5031108;28;20255;-56
2023/01/05 03:49:50;;;;;;;56.47;7.63;;;11.60;99.90;;;;;;5031192;28;20217;-57
2023/01/05 03:52:16;;;;;;;72.73;6.97;;;11.70;99.90;;;;;;5031321;28;20189;-56
2023/01/05 03:54:41;;;;;;;52.53;8.77;;;11.70;99.90;;;;;;5031011;28;20212;-56
2023/01/05 03:57:07;;;;;;;51.40;7.50;;;11.70;99.90;;;;;;5031054;28;20174;-59
2023/01/05 03:59:32;;;;;;;57.57;7.63;;;11.80;99.90;;;;;;5031027;28;20169;-57
2023/01/05 04:01:58;;;;;;;59.60;8.50;;;;;;;;;;5030773;28;20687;-56
2023/01/05 04:04:24;;;;;;;67.40;7.07;;;11.90;99.90;;;;;;5020070;28;20229;-56
2023/01/05 04:06:50;;;;;;;49.43;6.17;;;11.70;99.90;;;;;;5023700;28;20205;-57
2023/01/05 04:09:15;;;;;;;56.63;7.30;;;11.70;99.90;;;;;;5030680;28;20684;-56
2023/01/05 04:11:41;;;;;;;51.97;6.67;;;11.80;99.90;;;;;;5030723;28;20228;-57
2023/01/05 04:14:06;;;;;;;61.67;7.13;;;11.80;99.90;;;;;;5029518;28;20724;-57
2023/01/05 04:16:32;;;;;;;61.87;7.43;;;11.70;99.90;;;;;;5030529;28;20173;-57
2023/01/05 04:18:58;;;;;;;53.30;6.50;;;;;;;;;;5029150;28;20185;-56
2023/01/05 04:21:24;;;;;;;51.60;6.10;;;11.70;99.90;;;;;;5030874;28;20265;-56
2023/01/05 04:23:49;;;;;;;41.80;5.07;;;11.60;99.90;;;;;;5030442;28;20548;-56
2023/01/05 04:26:15;;;;;;;44.90;5.13;;;11.50;99.90;;;;;;5023116;28;20193;-56
2023/01/05 04:28:40;;;;;;;42.03;5.30;;;11.50;99.90;;;;;;5024579;28;20638;-57
2023/01/05 04:31:06;;;;;;;41.70;4.83;;;11.50;99.90;;;;;;5028769;28;20334;-57
2023/01/05 04:33:31;;;;;;;30.87;4.17;;;11.40;99.90;;;;;;5028946;28;20648;-57
2023/01/05 04:35:57;;;;;;;32.27;4.63;;;12.80;99.90;;;;;;5030357;28;20173;-57
2023/01/05 04:38:23;;;;;;;26.50;3.50;;;11.30;99.90;;;;;;5030449;28;20174;-58
2023/01/05 04:40:50;;;;;;;38.47;4.77;;;11.20;99.90;;;;;;5030545;28;20185;-56
2023/01/05 04:43:16;;;;;;;36.20;3.80;;;11.20;99.90;;;;;;5028307;28;20185;-56
2023/01/05 04:45:41;;;;;;;29.47;3.13;;;11.20;99.90;;;;;;5029825;28;20196;-56
2023/01/05 04:48:07;;;;;;;23.33;4.27;;;11.10;99.90;;;;;;5027260;28;20179;-56
2023/01/05 04:50:32;;;;;;;21.43;3.07;;;11.10;99.90;;;;;;5020528;28;20217;-55
2023/01/05 04:52:58;;;;;;;25.87;2.77;;;11.00;99.90;;;;;;5034197;28;20224;-56
2023/01/05 04:55:24;;;;;;;22.37;2.67;;;11.00;99.90;;;;;;5034332;28;20200;-56
2023/01/05 04:57:49;;;;;;;27.67;3.03;;;11.00;99.90;;;;;;5034015;28;20246;-56
2023/01/05 05:00:15;;;;;;;15.40;2.67;;;11.10;99.90;;;;;;5033249;28;20186;-56
2023/01/05 05:02:41;;;;;;;19.27;2.93;;;11.00;99.90;;;;;;5034127;28;20668;-57
2023/01/05 05:05:07;;;;;;;29.17;3.47;;;11.10;99.90;;;;;;5022999;28;20316;-57
2023/01/05 05:07:32;;;;;;;23.33;2.90;;;11.10;99.90;;;;;;5028919;28;20174;-57
2023/01/05 05:09:58;;;;;;;19.90;2.70;;;;;;;;;;5033884;28;20228;-57
2023/01/05 05:12:24;;;;;;;22.30;2.93;;;11.10;99.90;;;;;;5033926;28;20182;-57
2023/01/05 05:14:50;;;;;;;17.70;2.43;;;;;;;;;;5033196;28;20185;-57
2023/01/05 05:17:16;;;;;;;12.47;2.10;;;11.00;99.90;;;;;;5033327;28;20553;-57
2023/01/05 05:19:42;;;;;;;15.23;2.43;;;11.00;99.90;;;;;;5033562;28;20305;-57
2023/01/05 05:22:07;;;;;;;15.67;2.20;;;10.90;99.90;;;;;;5033885;28;20656;-57
2023/01/05 05:24:33;;;;;;;14.20;2.00;;;10.90;99.90;;;;;;5025629;28;20210;-57
2023/01/05 05:26:59;;;;;;;12.23;2.20;;;10.90;99.90;;;;;;5033727;28;20245;-57
2023/01/05 05:29:25;;;;;;;13.83;1.57;;;10.90;99.90;;;;;;5033672;28;20293;-57
2023/01/05 05:31:51;;;;;;;15.40;2.13;;;10.90;99.90;;;;;;5033790;28;20228;-57
2023/01/05 05:34:17;;;;;;;8.97;1.27;;;10.90;99.90;;;;;;5033681;28;20178;-57
2023/01/05 05:36:43;;;;;;;4.93;1.40;;;10.90;99.90;;;;;;5033710;28;20265;-57
2023/01/05 05:39:13;;;;;;;200.13;8.40;;;10.80;99.90;;;;;;5034223;28;20212;-57
2023/01/05 05:41:39;;;;;;;10.83;1.40;;;10.90;99.90;;;;;;5033472;28;20181;-57
2023/01/05 05:44:04;;;;;;;10.90;1.27;;;10.80;99.90;;;;;;5033566;28;20261;-57
2023/01/05 05:46:30;;;;;;;3.77;0.80;;;10.90;99.90;;;;;;5033429;28;20641;-58
2023/01/05 05:48:57;;;;;;;4.87;0.93;;;10.90;99.90;;;;;;5033419;28;20493;-58
2023/01/05 05:51:24;;;;;;;7.33;0.80;;;10.90;99.90;;;;;;5033421;28;20709;-57
2023/01/05 05:53:50;;;;;;;6.37;0.90;;;10.90;99.90;;;;;;5033311;28;20174;-57
2023/01/05 05:56:16;;;;;;;5.30;0.90;;;10.90;99.90;;;;;;5033285;28;20220;-57
2023/01/05 05:58:42;;;;;;;4.00;0.80;;;8.60;99.90;;;;;;5024229;28;20626;-57
2023/01/05 06:01:08;;;;;;;6.13;1.10;;;11.00;99.90;;;;;;5031298;28;20923;-57
2023/01/05 06:03:33;;;;;;;3.93;0.90;;;11.00;99.90;;;;;;5032623;28;20178;-57
2023/01/05 06:06:00;;;;;;;5.93;0.73;;;11.10;99.90;;;;;;5033100;28;20628;-57
2023/01/05 06:08:28;;;;;;;6.23;0.80;;;11.10;99.90;;;;;;5030967;28;20177;-57
2023/01/05 06:10:54;;;;;;;2.03;0.50;;;11.10;99.90;;;;;;5022777;28;20216;-57
2023/01/05 06:13:20;;;;;;;2.67;0.60;;;10.90;99.90;;;;;;5032865;28;20174;-57
2023/01/05 06:15:46;;;;;;;4.03;0.70;;;;;;;;;;5032654;28;20196;-55
2023/01/05 06:18:12;;;;;;;5.87;0.87;;;;;;;;;;5031142;28;20228;-57
2023/01/05 06:20:38;;;;;;;6.03;1.10;;;11.10;99.90;;;;;;5026108;28;20202;-57
2023/01/05 06:23:04;;;;;;;4.70;0.70;;;11.10;99.90;;;;;;5026812;28;20708;-57
2023/01/05 06:25:29;;;;;;;6.23;0.97;;;11.10;99.90;;;;;;5026419;28;20272;-57
2023/01/05 06:27:55;;;;;;;7.67;1.03;;;11.00;99.90;;;;;;5032117;28;20699;-57
2023/01/05 06:30:21;;;;;;;10.93;1.50;;;11.10;99.90;;;;;;5032493;28;20249;-57
2023/01/05 06:32:46;;;;;;;22.30;1.30;;;11.10;99.90;;;;;;5032444;28;20582;-57
2023/01/05 06:35:12;;;;;;;5.33;0.70;;;;;;;;;;5032579;28;20228;-57
2023/01/05 06:37:38;;;;;;;8.20;1.10;;;11.10;99.90;;;;;;5031919;28;20579;-57
2023/01/05 06:40:04;;;;;;;5.70;1.07;;;11.10;99.90;;;;;;5021655;28;20225;-57
2023/01/05 06:42:30;;;;;;;7.80;1.20;;;11.10;99.90;;;;;;5026346;28;20207;-57
2023/01/05 06:44:56;;;;;;;6.80;1.00;;;11.10;99.90;;;;;;5031965;28;20170;-57
2023/01/05 06:47:22;;;;;;;5.83;1.30;;;11.20;99.90;;;;;;5032283;28;20556;-57
2023/01/05 06:49:47;;;;;;;5.17;1.47;;;11.20;99.90;;;;;;5030527;28;20229;-57
2023/01/05 06:52:13;;;;;;;9.57;1.57;;;11.20;99.90;;;;;;5032105;28;20188;-57
2023/01/05 06:54:38;;;;;;;7.47;1.63;;;11.20;99.90;;;;;;5031614;28;20186;-57
2023/01/05 06:57:05;;;;;;;8.87;1.80;;;11.20;99.90;;;;;;5031379;28;21781;-57
2023/01/05 06:59:31;;;;;;;4.97;1.27;;;11.20;99.90;;;;;;5031787;28;20170;-58
2023/01/05 07:01:57;;;;;;;4.43;1.73;;;11.30;99.90;;;;;;5032109;28;20178;-58
2023/01/05 07:04:22;;;;;;;9.17;1.53;;;11.30;99.90;;;;;;5031750;28;20233;-58
2023/01/05 07:06:48;;;;;;;12.17;2.73;;;11.30;99.90;;;;;;5030668;28;20189;-57
2023/01/05 07:09:14;;;;;;;7.07;1.13;;;;;;;;;;5031210;28;20238;-56
2023/01/05 07:11:40;;;;;;;4.03;0.97;;;11.30;99.90;;;;;;5031204;28;20182;-56
2023/01/05 07:14:05;;;;;;;6.13;0.83;;;11.30;99.90;;;;;;5030984;28;20220;-57
2023/01/05 07:16:31;;;;;;;8.63;1.00;;;11.40;99.90;;;;;;5023419;28;20580;-57
2023/01/05 07:18:57;;;;;;;3.30;0.73;;;11.50;99.90;;;;;;5030943;28;20184;-57
2023/01/05 07:21:22;;;;;;;6.33;0.77;;;11.50;99.90;;;;;;5031662;28;20178;-57
2023/01/05 07:23:48;;;;;;;4.50;0.50;;;11.80;99.90;;;;;;5030627;28;20226;-56
2023/01/05 07:26:13;;;;;;;5.10;0.70;;;11.60;99.90;;;;;;5031295;28;20297;-57
2023/01/05 07:28:39;;;;;;;4.53;0.87;;;11.60;99.90;;;;;;5031155;28;20549;-57
2023/01/05 07:31:06;;;;;;;2.03;0.63;;;11.60;99.90;;;;;;5031194;28;20213;-57
2023/01/05 07:33:31;;;;;;;8.03;1.13;;;11.60;99.90;;;;;;5022985;28;20185;-57
2023/01/05 07:36:01;;;;;;;5.43;1.03;;;11.60;99.90;;;;;;5030351;28;20185;-57
2023/01/05 07:38:27;;;;;;;7.33;0.80;;;11.70;99.90;;;;;;5030013;28;20625;-57
2023/01/05 07:40:52;;;;;;;25.73;3.53;;;11.70;99.90;;;;;;5031361;28;20208;-57
2023/01/05 07:43:18;;;;;;;3.70;0.70;;;11.70;99.90;;;;;;5030833;28;20181;-58
2023/01/05 07:45:47;;;;;;;2.93;0.90;;;11.70;99.90;;;;;;5028874;28;20632;-58
2023/01/05 07:48:12;;;;;;;5.07;0.90;;;11.70;99.90;;;;;;5031130;28;20223;-58
2023/01/05 07:50:38;;;;;;;1.53;0.70;;;;;;;;;;5027019;28;20296;-56
2023/01/05 07:53:04;;;;;;;6.10;0.80;;;11.60;99.90;;;;;;5029403;28;20181;-57
2023/01/05 07:55:29;;;;;;;4.20;0.90;;;11.70;99.90;;;;;;5030476;28;20263;-57
2023/01/05 07:57:55;;;;;;;5.33;1.10;;;11.70;99.90;;;;;;5030589;28;20162;-56
2023/01/05 08:00:21;;;;;;;5.30;1.10;;;11.70;99.90;;;;;;5030831;28;20316;-56
2023/01/05 08:02:46;;;;;;;8.07;1.60;;;11.80;99.90;;;;;;5030867;28;20261;-56
2023/01/05 08:05:12;;;;;;;5.20;0.97;;;11.80;99.90;;;;;;5030433;28;20714;-56
2023/01/05 08:07:38;;;;;;;4.83;1.10;;;;;;;;;;5030613;28;20209;-56
2023/01/05 08:15:37;;;;;;;5.33;1.00;;;11.80;99.90;;;;;;4990228;28;20278;-57
2023/01/05 08:18:03;;;;;;;6.20;1.60;;;11.80;99.90;;;;;;5028230;28;20593;-57
2023/01/05 08:20:28;;;;;;;10.83;1.20;;;11.80;99.90;;;;;;5030902;28;20177;-58
2023/01/05 08:22:54;;;;;;;9.23;1.50;;;11.80;99.90;;;;;;5031082;28;20617;-57
2023/01/05 08:25:20;;;;;;;5.33;0.97;;;11.90;99.90;;;;;;5034341;28;20239;-57
2023/01/05 08:27:46;;;;;;;7.07;1.30;;;11.80;99.90;;;;;;5034775;28;20241;-57
2023/01/05 08:30:12;;;;;;;8.10;1.50;;;11.90;99.90;;;;;;5027785;28;20210;-57
2023/01/05 08:32:39;;;;;;;8.10;1.10;;;11.90;99.90;;;;;;5015216;28;20178;-58
2023/01/05 08:35:05;;;;;;;8.97;1.47;;;11.90;99.90;;;;;;5014966;28;20170;-57
2023/01/05 08:37:30;;;;;;;10.53;1.10;;;11.90;99.90;;;;;;5015161;28;20163;-57
2023/01/05 08:39:56;;;;;;;10.63;1.50;;;11.90;99.90;;;;;;5030286;28;20260;-58
2023/01/05 08:42:22;;;;;;;5.03;0.90;;;11.90;99.90;;;;;;5034683;28;20185;-57
2023/01/05 08:44:48;;;;;;;7.00;1.20;;;12.00;99.90;;;;;;5034629;28;20170;-57
2023/01/05 08:47:13;;;;;;;6.17;1.20;;;12.00;99.90;;;;;;5034458;28;20169;-58
2023/01/05 08:49:39;;;;;;;11.93;1.57;;;12.00;99.90;;;;;;5032750;28;20640;-58
2023/01/05 08:52:06;;;;;;;14.40;1.80;;;12.00;99.90;;;;;;5034202;28;20216;-58
2023/01/05 08:54:31;;;;;;;5.63;1.30;;;12.00;99.90;;;;;;5034485;28;20227;-58
2023/01/05 08:56:57;;;;;;;8.80;1.20;;;12.00;99.90;;;;;;5033974;28;20570;-58
2023/01/05 08:59:22;;;;;;;13.30;1.60;;;12.10;99.90;;;;;;5034049;28;20217;-58
2023/01/05 09:01:48;;;;;;;10.97;1.60;;;12.10;99.90;;;;;;5033812;28;20535;-55
2023/01/05 09:04:14;;;;;;;11.27;1.90;;;12.10;99.90;;;;;;5034072;28;20218;-57
2023/01/05 09:06:40;;;;;;;9.50;1.40;;;12.10;99.90;;;;;;5034128;28;20174;-57
2023/01/05 09:09:06;;;;;;;11.30;1.70;;;12.10;99.90;;;;;;5026917;28;20563;-57
2023/01/05 09:11:33;;;;;;;10.43;1.33;;;12.20;99.90;;;;;;5033984;28;20177;-57
2023/01/05 09:14:01;;;;;;;10.40;1.67;;;12.30;99.90;;;;;;5032041;28;20220;-57
2023/01/05 09:16:29;;;;;;;5.50;1.13;;;12.20;99.90;;;;;;5018820;28;20182;-57
2023/01/05 09:18:57;;;;;;;11.53;1.57;;;12.20;99.90;;;;;;5029187;28;20696;-57
2023/01/05 09:21:23;;;;;;;9.63;1.50;;;12.20;99.90;;;;;;5033706;28;20185;-57
2023/01/05 09:23:48;;;;;;;9.77;1.50;;;12.20;99.90;;;;;;5033069;28;20174;-57
2023/01/05 09:26:17;;;;;;;8.80;1.40;;;12.20;99.90;;;;;;5029162;28;20226;-57
2023/01/05 09:28:43;;;;;;;7.60;1.50;;;12.30;99.90;;;;;;5033701;28;20167;-56
2023/01/05 09:31:12;;;;;;;10.97;1.10;;;12.10;99.90;;;;;;5033266;28;20231;-57
2023/01/05 09:33:38;;;;;;;9.03;1.20;;;12.30;99.90;;;;;;5034161;28;20285;-56
2023/01/05 09:36:05;;;;;;;7.90;1.17;;;12.30;99.90;;;;;;5031663;28;20209;-56
2023/01/05 09:38:30;;;;;;;9.33;1.30;;;12.30;99.90;;;;;;5032336;28;20265;-57
2023/01/05 09:41:14;;;;;;;10.00;1.30;;;12.30;99.90;;;;;;5033534;28;20252;-56
2023/01/05 09:43:43;;;;;;;10.83;1.30;;;12.30;99.90;;;;;;5033565;28;20170;-56
2023/01/05 09:46:15;;;;;;;8.20;1.23;;;12.40;99.90;;;;;;5032933;28;20292;-57
2023/01/05 09:48:45;;;;;;;11.10;1.50;;;12.30;99.90;;;;;;5033194;28;20170;-56
2023/01/05 09:51:11;;;;;;;10.10;1.27;;;12.40;99.90;;;;;;5032568;28;20225;-57
2023/01/05 09:53:38;;;;;;;7.33;1.00;;;12.40;99.90;;;;;;5033126;28;20178;-57
2023/01/05 09:56:05;;;;;;;7.43;1.00;;;12.30;99.90;;;;;;5018998;28;20210;-57
2023/01/05 09:58:39;;;;;;;9.77;1.30;;;12.30;99.90;;;;;;5013354;28;20253;-57
2023/01/05 10:01:07;;;;;;;12.50;1.40;;;12.30;99.90;;;;;;5031144;28;20212;-57
2023/01/05 10:03:38;;;;;;;5.83;0.90;;;12.40;99.90;;;;;;5025303;28;20202;-57
2023/01/05 10:06:10;;;;;;;11.50;1.30;;;12.40;99.90;;;;;;5032942;28;20174;-57
2023/01/05 10:08:39;;;;;;;11.73;1.23;;;12.30;99.90;;;;;;5033007;28;20189;-57
2023/01/05 10:14:09;;;;;;;7.67;1.13;;;12.40;99.90;;;;;;5032493;28;20180;-56
2023/01/05 10:16:35;;;;;;;8.30;1.37;;;12.40;99.90;;;;;;5032902;28;20173;-57
2023/01/05 10:19:01;;;;;;;4.00;0.87;;;12.40;99.90;;;;;;5030173;28;20184;-55
2023/01/05 10:21:39;;;;;;;8.37;1.13;;;12.50;99.90;;;;;;5032829;28;20174;-55
2023/01/05 10:24:38;;;;;;;9.70;1.00;;;12.40;99.90;;;;;;5032296;28;20213;-55
2023/01/05 10:27:11;;;;;;;11.40;1.20;;;12.40;99.90;;;;;;5012906;28;20254;-55
2023/01/05 10:29:48;;;;;;;8.20;1.10;;;12.50;99.90;;;;;;5024901;28;20207;-55
2023/01/05 10:32:27;;;;;;;5.50;1.43;;;12.40;99.90;;;;;;5032408;28;20228;-56
2023/01/05 10:35:04;;;;;;;8.53;1.53;;;12.50;99.90;;;;;;5032309;28;20174;-55
2023/01/05 10:37:51;;;;;;;3.43;0.80;;;12.40;99.90;;;;;;5031138;28;20208;-56
2023/01/05 10:40:24;;;;;;;2.57;0.60;;;12.50;99.90;;;;;;5032126;28;20178;-56
2023/01/05 10:43:02;;;;;;;7.13;0.93;;;12.50;99.90;;;;;;5027759;28;20179;-56
2023/01/05 10:45:29;;;;;;;2.50;0.80;;;12.50;99.90;;;;;;5012546;28;20192;-57
2023/01/05 10:47:55;;;;;;;2.87;0.80;;;12.50;99.90;;;;;;5027610;28;20186;-56
2023/01/05 10:50:39;;;;;;;3.53;0.80;;;12.50;99.90;;;;;;5030654;28;20221;-56
2023/01/05 10:53:11;;;;;;;4.40;0.60;;;12.50;99.90;;;;;;5031745;28;20189;-55
2023/01/05 10:55:56;;;;;;;5.57;0.60;;;12.40;99.90;;;;;;5024803;28;20174;-55
2023/01/05 10:58:25;;;;;;;2.67;0.70;;;12.50;99.90;;;;;;4994843;28;20187;-55
2023/01/05 11:01:03;;;;;;;4.13;0.90;;;12.50;99.90;;;;;;5065831;28;20165;-56
2023/01/05 11:03:42;;;;;;;4.00;0.90;;;12.60;99.90;;;;;;5051428;28;20169;-56
2023/01/05 11:06:17;;;;;;;1.97;0.40;;;12.60;99.90;;;;;;5051572;28;20180;-55
2023/01/05 11:08:43;;;;;;;2.10;0.60;;;12.50;99.90;;;;;;5051587;28;20168;-55
2023/01/05 11:11:09;;;;;;;2.07;0.67;;;12.50;99.90;;;;;;5051713;28;20733;-55
2023/01/05 11:13:39;;;;;;;4.83;0.60;;;12.50;99.90;;;;;;5051569;28;20173;-55
2023/01/05 11:16:14;;;;;;;2.10;0.60;;;12.50;99.90;;;;;;5037959;28;20523;-55
2023/01/05 11:18:48;;;;;;;3.17;0.40;;;12.50;99.90;;;;;;5051340;28;20843;-55
2023/01/05 11:21:18;;;;;;;0.50;0.30;;;12.50;99.90;;;;;;5045935;28;20182;-55
2023/01/05 11:23:46;;;;;;;1.13;0.40;;;12.50;99.90;;;;;;5029598;28;20695;-55
2023/01/05 11:26:17;;;;;;;2.87;0.40;;;12.60;99.90;;;;;;5018436;28;20183;-55
2023/01/05 11:29:07;;;;;;;2.37;0.30;;;12.80;99.90;;;;;;5028551;28;20636;-55
2023/01/05 11:31:37;;;;;;;1.50;0.40;;;12.80;99.90;;;;;;5031339;28;20229;-55
2023/01/05 11:34:27;;;;;;;1.60;0.40;;;12.90;99.90;;;;;;5031100;28;20166;-55
2023/01/05 11:36:58;;;;;;;1.70;0.30;;;13.00;99.90;;;;;;5020458;28;20200;-56
2023/01/05 11:39:30;;;;;;;1.73;0.33;;;13.00;99.90;;;;;;5025222;28;20205;-55
2023/01/05 11:42:13;;;;;;;3.67;0.50;;;13.30;99.90;;;;;;5029163;28;20767;-55
2023/01/05 11:44:56;;;;;;;1.43;0.40;;;13.20;99.90;;;;;;5030459;28;20186;-55
2023/01/05 11:47:30;;;;;;;3.27;0.50;;;13.30;99.90;;;;;;5026147;28;20307;-56
2023/01/05 11:50:13;;;;;;;4.67;0.70;;;13.30;99.90;;;;;;5029683;28;20212;-54
2023/01/05 11:52:49;;;;;;;4.60;0.63;;;13.60;99.90;;;;;;5028616;28;20184;-54
2023/01/05 11:55:33;;;;;;;2.83;0.60;;;13.70;99.90;;;;;;5025794;28;20209;-55
2023/01/05 11:58:23;;;;;;;4.27;1.00;;;13.70;99.90;;;;;;5030402;28;20166;-54
2023/01/05 12:01:13;;;;;;;3.30;0.70;;;13.70;99.90;;;;;;5030476;28;20185;-54
2023/01/05 12:03:57;;;;;;;3.30;0.67;;;13.70;99.90;;;;;;5030611;28;20188;-54
2023/01/05 12:07:01;;;;;;;2.73;0.67;;;13.70;99.90;;;;;;5030937;28;20264;-54
2023/01/05 12:10:00;;;;;;;4.03;0.80;;;14.50;99.90;;;;;;5028457;28;20223;-54
2023/01/05 12:12:32;;;;;;;4.23;0.53;;;14.70;99.90;;;;;;5011265;28;20199;-54
2023/01/05 12:15:10;;;;;;;2.23;0.70;;;14.70;99.90;;;;;;5030311;28;20625;-54
2023/01/05 12:17:42;;;;;;;2.90;0.70;;;14.30;99.90;;;;;;5030166;28;20495;-54
2023/01/05 12:20:26;;;;;;;7.83;0.80;;;14.30;99.90;;;;;;5030451;28;20158;-54
2023/01/05 12:22:58;;;;;;;4.40;0.90;;;14.10;99.90;;;;;;5023765;28;20189;-54
2023/01/05 12:26:00;;;;;;;8.90;1.10;;;14.10;99.90;;;;;;5010884;28;20241;-55
2023/01/05 12:29:03;;;;;;;5.17;0.60;;;14.30;99.90;;;;;;5010900;28;20174;-54
2023/01/05 12:31:47;;;;;;;9.33;1.17;;;14.80;99.90;;;;;;5014072;28;20334;-54
2023/01/05 12:34:51;;;;;;;4.73;0.93;;;15.20;99.90;;;;;;5010797;28;20210;-54
2023/01/05 12:37:26;;;;;;;8.13;1.33;;;14.70;99.90;;;;;;5025251;28;20231;-53
2023/01/05 12:39:59;;;;;;;7.93;1.20;;;14.40;99.90;;;;;;5030341;28;20181;-54
2023/01/05 12:42:42;;;;;;;3.70;0.80;;;14.20;99.90;;;;;;5029875;28;20174;-54
2023/01/05 12:45:36;;;;;;;5.83;1.63;;;14.20;99.90;;;;;;5030140;28;20184;-54
2023/01/05 12:48:17;;;;;;;6.83;1.10;;;14.00;99.90;;;;;;5022505;28;20182;-54
2023/01/05 12:51:04;;;;;;;10.33;1.67;;;13.90;99.90;;;;;;5030192;28;20221;-54
2023/01/05 12:53:54;;;;;;;12.00;1.80;;;14.00;99.90;;;;;;5025930;28;20304;-53
2023/01/05 12:56:24;;;;;;;17.33;1.60;;;14.00;99.90;;;;;;5029157;28;20178;-54
2023/01/05 12:59:13;;;;;;;10.07;1.20;;;13.70;99.90;;;;;;5030149;28;20203;-54
2023/01/05 13:01:47;;;;;;;12.97;2.40;;;13.60;99.90;;;;;;5030479;28;20205;-54
2023/01/05 13:04:36;;;;;;;6.70;1.00;;;13.50;99.90;;;;;;5030200;28;20205;-54
2023/01/05 13:07:09;;;;;;;9.30;1.63;;;13.40;99.90;;;;;;5028752;28;20181;-54
2023/01/05 13:09:36;;;;;;;8.23;1.77;;;13.40;99.90;;;;;;5027382;28;20221;-55
2023/01/05 13:12:06;;;;;;;8.07;1.60;;;13.20;99.90;;;;;;5029579;28;20197;-55
2023/01/05 13:14:35;;;;;;;8.83;1.70;;;13.00;99.90;;;;;;5033121;28;20193;-55
2023/01/05 13:17:23;;;;;;;15.07;1.80;;;13.00;99.90;;;;;;5027831;28;20216;-55
2023/01/05 13:20:32;;;;;;;6.60;1.00;;;12.90;99.90;;;;;;5020671;28;20667;-56
2023/01/05 13:23:16;;;;;;;7.30;1.23;;;12.90;99.90;;;;;;5023592;28;20173;-56
2023/01/05 13:26:06;;;;;;;16.53;1.53;;;12.80;99.90;;;;;;5033764;28;20205;-56
2023/01/05 13:28:32;;;;;;;11.93;1.50;;;12.90;99.90;;;;;;5031833;28;20190;-56
2023/01/05 13:31:22;;;;;;;6.97;0.80;;;13.10;99.90;;;;;;5033180;28;20684;-55
2023/01/05 13:33:51;;;;;;;10.30;1.50;;;13.00;99.90;;;;;;5033291;28;20170;-55
2023/01/05 13:36:31;;;;;;;9.93;1.53;;;13.20;99.90;;;;;;5030513;28;20186;-55
2023/01/05 13:39:12;;;;;;;11.90;1.87;;;13.20;99.90;;;;;;5028778;28;20656;-55
2023/01/05 13:42:00;;;;;;;9.87;1.60;;;13.10;99.90;;;;;;5025480;28;20182;-55
2023/01/05 13:44:25;;;;;;;8.83;1.60;;;13.10;99.90;;;;;;5023245;28;20361;-55